Terminal Aerodrome Forecast
Issued by NWS Central Illinois

Home | Current Version | Previous Version | Text Only | Print | Product List | Glossary On
Versions: 1 2 3 4 5 6 7 8 9 10 11 12 13 14 15 16 17
000
FTUS43 KILX 250000 AAA
TAFSPI
TAF AMD
KSPI 250045Z 2501/2524 21006KT P6SM BKN100
     FM251000 13005KT 4SM BR OVC060
     FM251400 09007KT 3SM -RA BR OVC008
     FM251600 06012KT 3SM -RAPL BR OVC008
     FM251900 03012G20KT 1SM -SN BR OVC008=

USA.gov is the U.S. government's official web portal to all federal, state and local government web resources and services.